Latest Weather Observations for Roebourne Airport

IDW60801

Issued at 9:02 pm WST Sunday 7 February 2016 (issued every 30 minutes, with the page automatically refreshed every 10 minutes)

About weather observations | Map of weather stations | Latest weather observations for WA | Other Formats
Station Details ID: 004090 Name: ROEBOURNE AERO Lat: -20.76 Lon: 117.16 Height: 10.7 m
Data from the previous 72 hours. | See also: Recent months at Roebourne Airport
Date/Time
WST
Temp
°C
App
Temp
°C
Dew
Point
Rel
Hum
%
Delta-T
°C
Wind Press
QNH
hPa
Press
MSL
hPa
Rain
since 9 am
mm
Dir
 
Spd
km/h
Gust
km/h
Spd
kts
Gust
kts
07/09:00pm 30.9 32.1 19.9 52 7.3 WNW 13 19 7 10 1009.7 1009.7 0.0
07/08:30pm 31.5 32.5 19.5 49 7.9 W 13 19 7 10 1009.2 1009.2 0.0
07/08:00pm 32.4 32.0 17.1 40 9.7 W 15 20 8 11 1008.8 1008.8 0.0
07/07:30pm 32.9 32.6 18.3 42 9.5 W 17 24 9 13 1008.3 1008.3 0.0
07/07:00pm 33.7 31.9 17.0 37 10.7 WNW 22 28 12 15 1007.7 1007.6 0.0
07/06:30pm 35.0 32.9 17.2 34 11.4 WNW 24 32 13 17 1007.1 1007.0 0.0
07/06:00pm 36.5 33.2 15.0 27 13.5 WNW 26 32 14 17 1006.8 1006.7 0.0
07/05:30pm 37.1 34.0 16.6 29 13.1 WNW 28 33 15 18 1006.5 1006.4 0.0
07/05:00pm 37.6 34.5 16.5 28 13.6 WNW 28 35 15 19 1006.2 1006.1 0.0
07/04:30pm 38.6 35.4 16.3 27 14.3 NW 28 35 15 19 1006.2 1006.1 0.0
07/04:00pm 39.1 35.3 13.5 22 15.9 NNW 26 35 14 19 1006.1 1006.0 0.0
07/03:30pm 40.2 35.2 9.6 16 18.0 NNW 26 35 14 19 1006.2 1006.1 0.0
07/03:00pm 39.9 36.4 13.4 21 16.4 N 24 32 13 17 1006.5 1006.4 0.0
07/02:30pm 40.4 36.3 13.8 20 16.6 N 28 35 15 19 1006.6 1006.5 0.0
07/02:00pm 39.7 36.1 15.3 23 15.5 N 28 35 15 19 1006.8 1006.7 0.0
07/01:30pm 41.8 38.3 13.4 18 17.7 N 24 33 13 18 1007.2 1007.1 0.0
07/01:00pm 41.2 35.8 9.4 15 18.7 NNE 28 35 15 19 1007.6 1007.5 0.0
07/12:30pm 40.7 36.3 11.7 18 17.6 NNE 26 33 14 18 1007.9 1007.9 0.0
07/12:00pm 41.2 37.8 11.3 17 18.1 NNE 20 33 11 18 1008.0 1008.0 0.0
07/11:30am 41.0 39.8 10.2 16 18.3 ENE 7 19 4 10 1008.3 1008.3 0.0
07/11:00am 40.1 37.7 11.3 18 17.4 SE 15 22 8 12 1008.7 1008.7 0.0
07/10:30am 39.5 37.6 13.1 21 16.3 ESE 15 24 8 13 1008.9 1008.9 0.0
07/10:00am 39.3 38.9 16.2 25 14.8 SE 13 24 7 13 1009.1 1009.1 0.0
07/09:30am 38.4 38.4 17.2 28 13.8 SE 13 19 7 10 1009.2 1009.2 0.0
07/09:00am 37.3 38.3 17.8 31 12.7 S 9 15 5 8 1009.2 1009.2 0.0
07/08:30am 35.5 35.5 17.2 33 11.8 SE 13 19 7 10 1009.1 1009.1 0.0
07/08:00am 33.8 34.3 18.3 39 10.1 SSE 13 17 7 9 1008.9 1008.9 0.0
07/07:30am 30.6 33.9 21.9 59 5.9 S 7 9 4 5 1008.7 1008.7 0.0
07/07:00am 28.2 33.1 23.1 74 3.5 SSW 2 7 1 4 1008.5 1008.5 0.0
07/06:30am 26.0 31.2 22.9 83 2.1 CALM 0 0 0 0 1008.2 1008.2 0.0
07/06:00am 24.9 29.5 21.8 83 2.1 CALM 0 0 0 0 1008.0 1008.0 0.0
07/05:30am 24.9 29.1 21.8 83 2.1 E 2 6 1 3 1007.7 1007.6 0.0
07/05:00am 25.8 30.4 21.7 78 2.7 CALM 0 4 0 2 1007.7 1007.6 0.0
07/04:30am 26.9 30.3 22.7 78 2.8 WSW 9 9 5 5 1007.4 1007.3 0.0
07/04:00am 26.9 30.8 22.9 79 2.7 WSW 7 9 4 5 1007.4 1007.3 0.0
07/03:30am 26.9 30.8 22.9 79 2.7 SW 7 11 4 6 1007.4 1007.3 0.0
07/03:00am 27.4 31.0 23.0 77 3.0 WSW 9 11 5 6 1007.4 1007.3 0.0
07/02:30am 27.5 30.9 22.7 75 3.3 WSW 9 13 5 7 1007.6 1007.5 0.0
07/02:00am 27.8 30.7 22.5 73 3.6 WSW 11 15 6 8 1007.6 1007.5 0.0
07/01:30am 28.1 30.3 22.6 72 3.7 WSW 15 17 8 9 1007.7 1007.6 0.0
07/01:00am 28.1 30.1 22.3 70 3.9 WSW 15 20 8 11 1008.0 1008.0 0.0
07/12:30am 28.4 29.8 22.6 71 3.9 WSW 19 24 10 13 1008.1 1008.1 0.0
07/12:00am 28.6 30.0 22.6 70 4.1 WSW 19 22 10 12 1008.2 1008.2 0.0
 
Date/Time
WST
Temp
°C
App
Temp
°C
Dew
Point
Rel
Hum
%
Delta-T
°C
Wind Press
QNH
hPa
Press
MSL
hPa
Rain
since 9 am
mm
Dir
 
Spd
km/h
Gust
km/h
Spd
kts
Gust
kts
06/11:30pm 28.8 30.3 23.0 71 4.0 WSW 20 24 11 13 1008.4 1008.4 0.0
06/11:00pm 28.9 30.7 22.6 69 4.3 WSW 17 22 9 12 1008.6 1008.6 0.0
06/10:30pm 29.0 31.1 23.7 73 3.7 WSW 19 26 10 14 1008.7 1008.7 0.0
06/10:00pm 29.2 30.7 22.7 68 4.4 W 19 22 10 12 1008.4 1008.4 0.0
06/09:30pm 29.4 31.5 22.4 66 4.8 W 15 20 8 11 1008.2 1008.2 0.0
06/09:00pm 29.7 30.5 22.4 65 5.0 W 22 30 12 16 1007.8 1007.7 0.0
06/08:30pm 29.8 31.2 22.8 66 4.8 W 20 26 11 14 1007.6 1007.5 0.0
06/08:00pm 30.1 31.9 23.5 67 4.6 WNW 20 26 11 14 1007.3 1007.2 0.0
06/07:30pm 30.5 31.5 22.9 64 5.2 WNW 22 26 12 14 1007.0 1006.9 0.0
06/07:00pm 31.1 32.2 23.0 62 5.6 WNW 22 28 12 15 1006.7 1006.6 0.0
06/06:30pm 32.5 31.9 20.4 49 8.1 WNW 24 30 13 16 1006.3 1006.2 0.0
06/06:00pm 33.6 33.3 21.1 48 8.4 NW 24 30 13 16 1005.9 1005.8 0.0
06/05:30pm 35.0 34.8 21.3 45 9.3 NW 24 33 13 18 1005.7 1005.6 0.0
06/05:00pm 35.3 34.1 20.8 42 9.8 NW 28 32 15 17 1005.5 1005.4 0.0
06/04:30pm 36.9 35.6 19.8 36 11.4 NNW 26 33 14 18 1005.4 1005.3 0.0
06/04:00pm 37.8 36.6 20.1 35 11.9 NNW 26 33 14 18 1005.2 1005.1 0.0
06/03:30pm 38.8 38.6 20.6 35 12.4 NNW 22 32 12 17 1005.3 1005.2 0.0
06/03:00pm 38.7 38.6 20.0 33 12.6 NNW 20 32 11 17 1005.5 1005.4 0.0
06/02:30pm 37.9 37.5 20.2 35 11.9 N 22 32 12 17 1005.8 1005.7 0.0
06/02:00pm 38.8 39.0 20.6 35 12.4 N 20 32 11 17 1006.1 1006.0 0.0
06/01:30pm 38.6 38.8 19.4 32 12.8 NNW 17 32 9 17 1006.5 1006.4 0.0
06/01:00pm 38.2 39.0 21.4 37 11.5 N 19 30 10 16 1006.8 1006.7 0.0
06/12:30pm 39.3 40.4 22.3 37 11.8 NNW 20 30 11 16 1007.0 1006.9 0.0
06/12:00pm 38.5 40.1 20.8 36 12.1 WSW 13 24 7 13 1007.2 1007.1 0.0
06/11:30am 37.9 41.1 22.4 41 10.7 NW 9 19 5 10 1007.8 1007.7 0.0
06/11:00am 36.3 38.0 20.9 40 10.4 WNW 13 19 7 10 1008.3 1008.3 0.0
06/10:30am 35.9 38.4 20.2 40 10.5 WNW 7 17 4 9 1008.6 1008.6 0.0
06/10:00am 35.6 38.5 21.1 43 9.8 W 7 15 4 8 1008.9 1008.9 0.0
06/09:30am 34.0 36.5 21.8 49 8.3 W 11 20 6 11 1009.2 1009.2 0.0
06/09:00am 32.8 35.9 22.9 56 6.8 W 11 17 6 9 1009.2 1009.2 0.0
06/08:30am 31.9 35.5 23.7 62 5.7 W 11 17 6 9 1009.1 1009.1 0.0
06/08:00am 30.4 33.9 23.6 67 4.7 WSW 11 17 6 9 1008.9 1008.9 0.0
06/07:30am 29.3 32.4 24.2 74 3.5 WSW 15 20 8 11 1008.7 1008.7 0.0
06/07:00am 28.5 31.2 24.1 77 3.1 WSW 17 22 9 12 1008.5 1008.5 0.0
06/06:30am 27.8 31.8 23.8 79 2.8 WSW 9 15 5 8 1008.1 1008.1 0.0
06/06:00am 26.9 30.1 22.3 76 3.1 WSW 9 13 5 7 1007.6 1007.5 0.0
06/05:30am 27.9 30.2 23.5 77 3.0 W 17 20 9 11 1007.2 1007.1 0.0
06/05:00am 27.9 29.5 22.2 71 3.9 W 17 19 9 10 1007.0 1006.9 0.0
06/04:30am 27.8 29.7 21.3 67 4.3 W 13 17 7 9 1007.0 1006.9 0.0
06/04:00am 28.0 30.3 22.0 70 4.0 W 13 17 7 9 1006.9 1006.8 0.0
06/03:30am 28.2 30.2 22.2 70 4.0 W 15 17 8 9 1006.9 1006.8 0.0
06/03:00am 28.5 31.4 22.5 70 4.1 WNW 11 15 6 8 1007.1 1007.0 0.0
06/02:30am 28.7 32.3 23.1 71 3.8 WNW 9 13 5 7 1007.3 1007.2 0.0
06/02:00am 28.6 31.6 23.3 73 3.6 WNW 13 17 7 9 1007.3 1007.2 0.0
06/01:30am 28.9 31.5 23.3 72 3.8 W 15 19 8 10 1007.3 1007.2 0.0
06/01:00am 29.1 31.3 23.3 71 4.0 W 17 20 9 11 1007.6 1007.5 0.0
06/12:30am 29.3 32.4 24.2 74 3.5 W 15 22 8 12 1007.6 1007.5 0.0
06/12:00am 29.4 32.3 24.5 75 3.4 W 17 22 9 12 1007.7 1007.6 0.0
 
Date/Time
WST
Temp
°C
App
Temp
°C
Dew
Point
Rel
Hum
%
Delta-T
°C
Wind Press
QNH
hPa
Press
MSL
hPa
Rain
since 9 am
mm
Dir
 
Spd
km/h
Gust
km/h
Spd
kts
Gust
kts
05/11:30pm 29.6 32.9 24.5 74 3.6 W 15 17 8 9 1008.1 1008.1 0.0
05/11:00pm 29.7 32.3 24.6 74 3.6 W 19 22 10 12 1008.1 1008.1 0.0
05/10:30pm 29.9 32.6 24.1 71 4.0 W 17 22 9 12 1008.1 1008.1 0.0
05/10:00pm 30.1 32.1 24.0 70 4.2 W 20 26 11 14 1007.8 1007.7 0.0
05/09:30pm 30.0 32.2 24.2 71 4.0 W 20 26 11 14 1007.7 1007.6 0.0
05/09:00pm 30.4 33.1 24.1 69 4.4 WNW 17 22 9 12 1007.5 1007.4 0.0
05/08:30pm 30.9 32.8 23.8 66 4.9 WNW 20 26 11 14 1007.1 1007.0 0.0
05/08:00pm 32.2 32.9 20.5 50 7.8 WNW 17 20 9 11 1006.8 1006.7 0.0
05/07:30pm 32.5 32.5 19.0 44 8.8 WNW 17 22 9 12 1006.5 1006.4 0.0
05/07:00pm 33.1 33.0 19.9 45 8.8 WNW 20 24 11 13 1006.1 1006.0 0.0
05/06:30pm 34.0 33.0 18.9 41 9.9 WNW 22 28 12 15 1005.7 1005.6 0.0
05/06:00pm 34.8 32.8 17.5 35 11.2 NW 24 32 13 17 1005.3 1005.2 0.0
05/05:30pm 35.2 33.6 18.3 36 11.0 NW 24 32 13 17 1005.1 1005.0 0.0
05/05:00pm 35.7 34.3 18.7 36 11.2 NNW 24 32 13 17 1004.9 1004.8 0.0
05/04:30pm 36.7 35.9 20.1 38 11.1 NW 24 33 13 18 1004.8 1004.7 0.0
05/04:00pm 38.1 36.4 18.0 30 13.2 NNW 24 32 13 17 1004.8 1004.7 0.0
05/03:30pm 38.6 36.2 17.4 29 13.8 N 26 35 14 19 1004.8 1004.7 0.0
05/03:00pm 39.6 37.9 17.1 26 14.7 N 22 30 12 16 1004.9 1004.8 0.0
05/02:30pm 40.2 39.9 18.2 27 14.5 NNW 17 28 9 15 1005.2 1005.1 0.0
05/02:00pm 40.7 39.8 16.8 24 15.6 NNE 17 26 9 14 1005.2 1005.1 0.0
05/01:30pm 39.4 38.1 15.7 24 15.1 N 17 32 9 17 1005.6 1005.5 0.0
05/01:00pm 39.5 38.0 16.4 25 14.9 N 19 28 10 15 1006.0 1005.9 0.0
05/12:30pm 39.0 37.4 16.6 27 14.4 NNE 20 33 11 18 1006.4 1006.3 0.0
05/12:00pm 38.6 36.4 16.8 27 14.1 NE 24 33 13 18 1006.8 1006.7 0.0
05/11:30am 38.6 36.5 16.3 27 14.3 NE 22 32 12 17 1007.3 1007.2 0.0
05/11:00am 38.6 37.1 16.8 27 14.1 ENE 20 35 11 19 1007.8 1007.7 0.0
05/10:30am 37.9 35.9 17.3 29 13.4 ENE 24 35 13 19 1008.4 1008.4 0.0
05/10:00am 37.4 36.2 17.4 30 13.0 ESE 20 30 11 16 1008.7 1008.7 0.0
05/09:30am 36.4 35.0 17.0 31 12.5 SE 20 28 11 15 1009.1 1009.1 0.0
05/09:00am 35.1 34.4 18.2 36 11.0 SSE 19 28 10 15 1009.3 1009.3 0.0
05/08:30am 33.3 33.5 20.1 45 8.8 SSW 19 26 10 14 1009.4 1009.4 0.0
05/08:00am 31.8 33.8 22.2 56 6.5 SSW 15 20 8 11 1009.4 1009.4 0.0
05/07:30am 30.0 33.4 23.4 67 4.5 SW 11 15 6 8 1009.5 1009.5 0.0
05/07:00am 28.3 31.3 23.4 75 3.4 WSW 13 19 7 10 1009.2 1009.2 0.0
05/06:30am 27.2 30.4 23.7 81 2.4 W 13 17 7 9 1009.1 1009.1 0.0
05/06:00am 26.5 29.5 23.4 83 2.1 W 13 17 7 9 1008.9 1008.9 0.0
05/05:30am 26.5 29.9 23.4 83 2.1 W 11 15 6 8 1008.5 1008.5 0.0
05/05:00am 26.7 30.5 23.4 82 2.3 W 9 13 5 7 1008.3 1008.3 0.0
05/04:30am 26.8 29.9 23.5 82 2.3 WNW 13 15 7 8 1008.2 1008.2 0.0
05/04:00am 27.0 30.2 23.7 82 2.3 W 13 17 7 9 1008.1 1008.1 0.0
05/03:30am 27.1 29.7 23.3 80 2.6 W 15 19 8 10 1008.1 1008.1 0.0
05/03:00am 27.6 29.5 23.4 78 2.9 WSW 19 24 10 13 1008.2 1008.2 0.0
05/02:30am 27.5 30.0 23.1 77 3.0 W 15 20 8 11 1008.3 1008.3 0.0
05/02:00am 27.8 29.8 23.0 75 3.3 W 17 20 9 11 1008.3 1008.3 0.0
05/01:30am 27.9 30.2 22.8 74 3.5 WSW 15 19 8 10 1008.4 1008.4 0.0
05/01:00am 28.1 30.0 22.8 73 3.6 WSW 17 20 9 11 1008.7 1008.7 0.0
05/12:30am 28.2 29.9 22.4 71 3.9 WSW 17 20 9 11 1008.9 1008.9 0.0
05/12:00am 28.6 29.8 22.1 68 4.4 WSW 19 22 10 12 1008.8 1008.8 0.0
 
Date/Time
WST
Temp
°C
App
Temp
°C
Dew
Point
Rel
Hum
%
Delta-T
°C
Wind Press
QNH
hPa
Press
MSL
hPa
Rain
since 9 am
mm
Dir
 
Spd
km/h
Gust
km/h
Spd
kts
Gust
kts
04/11:30pm 28.7 30.4 22.4 68 4.3 WSW 17 24 9 13 1009.0 1009.0 0.0
04/11:00pm 28.6 30.3 22.3 68 4.3 WSW 17 24 9 13 1009.1 1009.1 0.0
04/10:30pm 28.7 29.8 22.4 68 4.3 WSW 20 26 11 14 1009.3 1009.3 0.0
04/10:00pm 28.9 30.6 22.4 68 4.4 WSW 17 24 9 13 1009.3 1009.3 0.0
04/09:30pm 29.1 30.1 22.1 66 4.7 W 20 28 11 15 1009.1 1009.1 0.0

Other Formats:

Comma delimited format used in spreadsheet applications
http://www.bom.gov.au/fwo/IDW60801/IDW60801.94308.axf

JavaScript Object Notation format (JSON) in row-major order
http://www.bom.gov.au/fwo/IDW60801/IDW60801.94308.json